sensor_id;sensor_type;location;lat;lon;timestamp;P1;durP1;ratioP1;P2;durP2;ratioP2
5491;SDS011;2768;53.540;10.224;2023-02-19T00:02:21;8.27;;;6.23;;
5491;SDS011;2768;53.540;10.224;2023-02-19T00:08:16;9.00;;;6.27;;
5491;SDS011;2768;53.540;10.224;2023-02-19T00:14:09;12.30;;;6.60;;
5491;SDS011;2768;53.540;10.224;2023-02-19T00:20:06;6.73;;;5.60;;
5491;SDS011;2768;53.540;10.224;2023-02-19T00:26:02;8.83;;;5.47;;
5491;SDS011;2768;53.540;10.224;2023-02-19T00:32:10;8.33;;;5.73;;
5491;SDS011;2768;53.540;10.224;2023-02-19T00:38:04;8.73;;;6.80;;
5491;SDS011;2768;53.540;10.224;2023-02-19T00:44:00;7.30;;;6.50;;
5491;SDS011;2768;53.540;10.224;2023-02-19T00:49:54;9.40;;;6.40;;
5491;SDS011;2768;53.540;10.224;2023-02-19T00:55:47;11.80;;;6.37;;
5491;SDS011;2768;53.540;10.224;2023-02-19T01:01:42;8.13;;;6.17;;
5491;SDS011;2768;53.540;10.224;2023-02-19T01:07:36;12.83;;;7.07;;
5491;SDS011;2768;53.540;10.224;2023-02-19T01:13:31;9.03;;;6.63;;
5491;SDS011;2768;53.540;10.224;2023-02-19T01:19:27;9.90;;;6.40;;
5491;SDS011;2768;53.540;10.224;2023-02-19T01:25:20;10.30;;;6.10;;
5491;SDS011;2768;53.540;10.224;2023-02-19T01:31:14;11.50;;;6.70;;
5491;SDS011;2768;53.540;10.224;2023-02-19T01:37:10;11.73;;;6.97;;
5491;SDS011;2768;53.540;10.224;2023-02-19T01:43:04;9.87;;;7.10;;
5491;SDS011;2768;53.540;10.224;2023-02-19T01:49:03;9.73;;;5.10;;
5491;SDS011;2768;53.540;10.224;2023-02-19T01:55:02;4.40;;;3.70;;
5491;SDS011;2768;53.540;10.224;2023-02-19T02:00:58;4.80;;;3.50;;
5491;SDS011;2768;53.540;10.224;2023-02-19T02:06:54;4.90;;;2.93;;
5491;SDS011;2768;53.540;10.224;2023-02-19T02:12:52;6.63;;;2.80;;
5491;SDS011;2768;53.540;10.224;2023-02-19T02:18:54;4.50;;;2.47;;
5491;SDS011;2768;53.540;10.224;2023-02-19T02:25:02;6.90;;;2.50;;
5491;SDS011;2768;53.540;10.224;2023-02-19T02:31:10;4.87;;;2.90;;
5491;SDS011;2768;53.540;10.224;2023-02-19T02:37:09;4.13;;;2.20;;
5491;SDS011;2768;53.540;10.224;2023-02-19T02:43:04;6.60;;;2.30;;
5491;SDS011;2768;53.540;10.224;2023-02-19T02:49:00;3.73;;;2.03;;
5491;SDS011;2768;53.540;10.224;2023-02-19T02:54:58;6.70;;;2.30;;
5491;SDS011;2768;53.540;10.224;2023-02-19T03:00:58;2.10;;;1.80;;
5491;SDS011;2768;53.540;10.224;2023-02-19T03:07:15;3.80;;;2.13;;
5491;SDS011;2768;53.540;10.224;2023-02-19T03:13:09;7.30;;;2.20;;
5491;SDS011;2768;53.540;10.224;2023-02-19T03:19:24;6.17;;;2.00;;
5491;SDS011;2768;53.540;10.224;2023-02-19T03:25:20;6.47;;;2.10;;
5491;SDS011;2768;53.540;10.224;2023-02-19T03:31:37;4.37;;;2.07;;
5491;SDS011;2768;53.540;10.224;2023-02-19T03:37:34;5.00;;;1.97;;
5491;SDS011;2768;53.540;10.224;2023-02-19T03:43:33;5.73;;;3.23;;
5491;SDS011;2768;53.540;10.224;2023-02-19T03:49:33;4.80;;;2.43;;
5491;SDS011;2768;53.540;10.224;2023-02-19T03:55:38;4.37;;;2.37;;
5491;SDS011;2768;53.540;10.224;2023-02-19T04:01:40;4.77;;;1.60;;
5491;SDS011;2768;53.540;10.224;2023-02-19T04:07:38;4.77;;;1.80;;
5491;SDS011;2768;53.540;10.224;2023-02-19T04:13:39;4.73;;;1.73;;
5491;SDS011;2768;53.540;10.224;2023-02-19T04:19:37;4.97;;;2.13;;
5491;SDS011;2768;53.540;10.224;2023-02-19T04:25:33;3.00;;;1.90;;
5491;SDS011;2768;53.540;10.224;2023-02-19T04:31:30;2.30;;;1.70;;
5491;SDS011;2768;53.540;10.224;2023-02-19T04:37:27;6.70;;;2.27;;
5491;SDS011;2768;53.540;10.224;2023-02-19T04:43:20;2.10;;;1.83;;
5491;SDS011;2768;53.540;10.224;2023-02-19T04:49:13;5.77;;;2.30;;
5491;SDS011;2768;53.540;10.224;2023-02-19T04:55:08;5.53;;;2.17;;
5491;SDS011;2768;53.540;10.224;2023-02-19T05:01:02;6.10;;;2.63;;
5491;SDS011;2768;53.540;10.224;2023-02-19T05:06:55;4.77;;;2.20;;
5491;SDS011;2768;53.540;10.224;2023-02-19T05:12:50;4.13;;;2.60;;
5491;SDS011;2768;53.540;10.224;2023-02-19T05:18:43;3.77;;;3.00;;
5491;SDS011;2768;53.540;10.224;2023-02-19T05:24:38;9.57;;;2.70;;
5491;SDS011;2768;53.540;10.224;2023-02-19T05:30:32;3.73;;;2.50;;
5491;SDS011;2768;53.540;10.224;2023-02-19T05:36:26;2.70;;;2.33;;
5491;SDS011;2768;53.540;10.224;2023-02-19T05:42:20;5.40;;;2.33;;
5491;SDS011;2768;53.540;10.224;2023-02-19T05:48:14;4.87;;;2.80;;
5491;SDS011;2768;53.540;10.224;2023-02-19T05:54:08;4.37;;;2.70;;
5491;SDS011;2768;53.540;10.224;2023-02-19T06:00:01;3.80;;;2.83;;
5491;SDS011;2768;53.540;10.224;2023-02-19T06:06:04;2.80;;;2.50;;
5491;SDS011;2768;53.540;10.224;2023-02-19T06:11:57;2.60;;;2.40;;
5491;SDS011;2768;53.540;10.224;2023-02-19T06:17:50;3.77;;;2.50;;
5491;SDS011;2768;53.540;10.224;2023-02-19T06:23:46;3.00;;;1.73;;
5491;SDS011;2768;53.540;10.224;2023-02-19T06:29:39;4.00;;;1.83;;
5491;SDS011;2768;53.540;10.224;2023-02-19T06:35:32;3.90;;;1.70;;
5491;SDS011;2768;53.540;10.224;2023-02-19T06:41:27;2.30;;;1.70;;
5491;SDS011;2768;53.540;10.224;2023-02-19T06:47:20;7.23;;;1.87;;
5491;SDS011;2768;53.540;10.224;2023-02-19T06:53:15;6.50;;;2.47;;
5491;SDS011;2768;53.540;10.224;2023-02-19T06:59:11;3.87;;;1.87;;
5491;SDS011;2768;53.540;10.224;2023-02-19T07:05:07;5.77;;;2.20;;
5491;SDS011;2768;53.540;10.224;2023-02-19T07:11:00;6.57;;;3.23;;
5491;SDS011;2768;53.540;10.224;2023-02-19T07:16:54;7.13;;;1.90;;
5491;SDS011;2768;53.540;10.224;2023-02-19T07:22:48;3.40;;;1.83;;
5491;SDS011;2768;53.540;10.224;2023-02-19T07:28:41;3.70;;;2.07;;
5491;SDS011;2768;53.540;10.224;2023-02-19T07:34:36;4.13;;;2.20;;
5491;SDS011;2768;53.540;10.224;2023-02-19T07:40:29;2.80;;;1.90;;
5491;SDS011;2768;53.540;10.224;2023-02-19T07:46:22;3.70;;;2.13;;
5491;SDS011;2768;53.540;10.224;2023-02-19T07:52:17;6.17;;;1.97;;
5491;SDS011;2768;53.540;10.224;2023-02-19T07:58:10;4.83;;;1.93;;
5491;SDS011;2768;53.540;10.224;2023-02-19T08:04:04;5.50;;;1.93;;
5491;SDS011;2768;53.540;10.224;2023-02-19T08:09:58;5.70;;;1.70;;
5491;SDS011;2768;53.540;10.224;2023-02-19T08:16:09;4.53;;;1.87;;
5491;SDS011;2768;53.540;10.224;2023-02-19T08:22:14;4.50;;;1.83;;
5491;SDS011;2768;53.540;10.224;2023-02-19T08:28:09;4.80;;;1.97;;
5491;SDS011;2768;53.540;10.224;2023-02-19T08:34:03;5.30;;;1.80;;
5491;SDS011;2768;53.540;10.224;2023-02-19T08:39:57;4.17;;;2.13;;
5491;SDS011;2768;53.540;10.224;2023-02-19T08:45:51;4.07;;;1.93;;
5491;SDS011;2768;53.540;10.224;2023-02-19T08:51:46;8.03;;;2.80;;
5491;SDS011;2768;53.540;10.224;2023-02-19T08:57:39;6.10;;;2.20;;
5491;SDS011;2768;53.540;10.224;2023-02-19T09:03:33;4.83;;;1.93;;
5491;SDS011;2768;53.540;10.224;2023-02-19T09:09:27;3.27;;;1.63;;
5491;SDS011;2768;53.540;10.224;2023-02-19T09:15:20;8.97;;;2.43;;
5491;SDS011;2768;53.540;10.224;2023-02-19T09:21:14;4.37;;;2.10;;
5491;SDS011;2768;53.540;10.224;2023-02-19T09:27:08;4.50;;;1.47;;
5491;SDS011;2768;53.540;10.224;2023-02-19T09:33:06;7.93;;;1.50;;
5491;SDS011;2768;53.540;10.224;2023-02-19T09:39:00;4.97;;;1.70;;
5491;SDS011;2768;53.540;10.224;2023-02-19T09:44:54;6.80;;;2.60;;
5491;SDS011;2768;53.540;10.224;2023-02-19T09:50:50;5.50;;;1.57;;
5491;SDS011;2768;53.540;10.224;2023-02-19T09:56:45;5.53;;;2.00;;
5491;SDS011;2768;53.540;10.224;2023-02-19T10:02:39;3.53;;;2.03;;
5491;SDS011;2768;53.540;10.224;2023-02-19T10:08:33;9.30;;;1.77;;
5491;SDS011;2768;53.540;10.224;2023-02-19T10:14:32;5.80;;;1.47;;
5491;SDS011;2768;53.540;10.224;2023-02-19T10:20:29;2.80;;;1.00;;
5491;SDS011;2768;53.540;10.224;2023-02-19T10:26:23;4.13;;;1.10;;
5491;SDS011;2768;53.540;10.224;2023-02-19T10:32:18;6.97;;;1.50;;
5491;SDS011;2768;53.540;10.224;2023-02-19T10:38:14;4.67;;;1.27;;
5491;SDS011;2768;53.540;10.224;2023-02-19T10:44:10;4.93;;;1.17;;
5491;SDS011;2768;53.540;10.224;2023-02-19T10:56:21;4.57;;;1.23;;
5491;SDS011;2768;53.540;10.224;2023-02-19T11:02:17;5.67;;;1.10;;
5491;SDS011;2768;53.540;10.224;2023-02-19T11:08:16;1.80;;;0.70;;
5491;SDS011;2768;53.540;10.224;2023-02-19T11:14:14;5.97;;;1.10;;
5491;SDS011;2768;53.540;10.224;2023-02-19T11:20:12;5.60;;;1.10;;
5491;SDS011;2768;53.540;10.224;2023-02-19T11:26:14;3.27;;;1.00;;
5491;SDS011;2768;53.540;10.224;2023-02-19T11:32:23;2.10;;;0.90;;
5491;SDS011;2768;53.540;10.224;2023-02-19T11:38:20;3.33;;;0.70;;
5491;SDS011;2768;53.540;10.224;2023-02-19T11:44:18;1.93;;;0.93;;
5491;SDS011;2768;53.540;10.224;2023-02-19T11:50:23;2.43;;;0.60;;
5491;SDS011;2768;53.540;10.224;2023-02-19T11:56:22;1.77;;;0.90;;
5491;SDS011;2768;53.540;10.224;2023-02-19T12:02:29;2.00;;;0.70;;
5491;SDS011;2768;53.540;10.224;2023-02-19T12:21:25;3.93;;;0.60;;
5491;SDS011;2768;53.540;10.224;2023-02-19T12:27:32;2.23;;;0.73;;
5491;SDS011;2768;53.540;10.224;2023-02-19T12:40:00;1.50;;;0.90;;
5491;SDS011;2768;53.540;10.224;2023-02-19T12:46:07;1.67;;;1.07;;
5491;SDS011;2768;53.540;10.224;2023-02-19T12:52:05;2.77;;;0.90;;
5491;SDS011;2768;53.540;10.224;2023-02-19T12:58:04;2.53;;;1.00;;
5491;SDS011;2768;53.540;10.224;2023-02-19T13:04:12;1.97;;;0.70;;
5491;SDS011;2768;53.540;10.224;2023-02-19T13:10:17;3.23;;;0.80;;
5491;SDS011;2768;53.540;10.224;2023-02-19T13:16:18;4.70;;;0.87;;
5491;SDS011;2768;53.540;10.224;2023-02-19T13:22:15;3.33;;;0.90;;
5491;SDS011;2768;53.540;10.224;2023-02-19T13:28:41;2.60;;;1.10;;
5491;SDS011;2768;53.540;10.224;2023-02-19T13:35:08;3.00;;;1.03;;
5491;SDS011;2768;53.540;10.224;2023-02-19T13:41:19;2.83;;;0.93;;
5491;SDS011;2768;53.540;10.224;2023-02-19T13:53:55;2.20;;;1.20;;
5491;SDS011;2768;53.540;10.224;2023-02-19T13:59:50;2.93;;;1.20;;
5491;SDS011;2768;53.540;10.224;2023-02-19T14:05:58;2.60;;;1.10;;
5491;SDS011;2768;53.540;10.224;2023-02-19T14:12:07;2.43;;;1.10;;
5491;SDS011;2768;53.540;10.224;2023-02-19T14:24:36;4.33;;;1.13;;
5491;SDS011;2768;53.540;10.224;2023-02-19T14:30:31;3.93;;;0.83;;
5491;SDS011;2768;53.540;10.224;2023-02-19T14:36:40;1.80;;;0.87;;
5491;SDS011;2768;53.540;10.224;2023-02-19T14:42:39;1.60;;;0.57;;
5491;SDS011;2768;53.540;10.224;2023-02-19T14:48:35;1.70;;;0.80;;
5491;SDS011;2768;53.540;10.224;2023-02-19T14:54:34;3.93;;;1.23;;
5491;SDS011;2768;53.540;10.224;2023-02-19T15:00:33;6.40;;;1.00;;
5491;SDS011;2768;53.540;10.224;2023-02-19T15:06:30;1.77;;;0.73;;
5491;SDS011;2768;53.540;10.224;2023-02-19T15:12:27;3.70;;;1.80;;
5491;SDS011;2768;53.540;10.224;2023-02-19T15:18:24;4.53;;;1.30;;
5491;SDS011;2768;53.540;10.224;2023-02-19T15:24:21;2.83;;;1.27;;
5491;SDS011;2768;53.540;10.224;2023-02-19T15:30:17;3.67;;;1.00;;
5491;SDS011;2768;53.540;10.224;2023-02-19T15:36:13;5.03;;;0.93;;
5491;SDS011;2768;53.540;10.224;2023-02-19T15:42:14;2.77;;;1.30;;
5491;SDS011;2768;53.540;10.224;2023-02-19T15:48:12;1.60;;;1.10;;
5491;SDS011;2768;53.540;10.224;2023-02-19T15:54:11;4.33;;;1.60;;
5491;SDS011;2768;53.540;10.224;2023-02-19T16:00:20;3.97;;;1.40;;
5491;SDS011;2768;53.540;10.224;2023-02-19T16:06:18;3.00;;;1.43;;
5491;SDS011;2768;53.540;10.224;2023-02-19T16:12:17;7.73;;;1.80;;
5491;SDS011;2768;53.540;10.224;2023-02-19T16:18:14;5.77;;;1.30;;
5491;SDS011;2768;53.540;10.224;2023-02-19T16:24:11;5.50;;;1.97;;
5491;SDS011;2768;53.540;10.224;2023-02-19T16:30:16;2.83;;;1.50;;
5491;SDS011;2768;53.540;10.224;2023-02-19T16:36:21;2.60;;;1.50;;
5491;SDS011;2768;53.540;10.224;2023-02-19T16:42:18;3.40;;;2.37;;
5491;SDS011;2768;53.540;10.224;2023-02-19T16:48:11;6.43;;;1.37;;
5491;SDS011;2768;53.540;10.224;2023-02-19T16:54:07;4.40;;;1.80;;
5491;SDS011;2768;53.540;10.224;2023-02-19T17:00:01;5.33;;;2.10;;
5491;SDS011;2768;53.540;10.224;2023-02-19T17:05:55;6.20;;;2.07;;
5491;SDS011;2768;53.540;10.224;2023-02-19T17:11:49;3.00;;;1.83;;
5491;SDS011;2768;53.540;10.224;2023-02-19T17:17:43;2.87;;;1.97;;
5491;SDS011;2768;53.540;10.224;2023-02-19T17:23:37;2.47;;;2.00;;
5491;SDS011;2768;53.540;10.224;2023-02-19T17:29:32;2.60;;;1.60;;
5491;SDS011;2768;53.540;10.224;2023-02-19T17:35:27;3.83;;;1.90;;
5491;SDS011;2768;53.540;10.224;2023-02-19T17:41:21;3.33;;;1.80;;
5491;SDS011;2768;53.540;10.224;2023-02-19T17:47:16;6.50;;;1.90;;
5491;SDS011;2768;53.540;10.224;2023-02-19T17:53:09;4.73;;;1.50;;
5491;SDS011;2768;53.540;10.224;2023-02-19T17:59:02;4.50;;;1.70;;
5491;SDS011;2768;53.540;10.224;2023-02-19T18:04:57;2.60;;;1.37;;
5491;SDS011;2768;53.540;10.224;2023-02-19T18:10:51;2.97;;;1.50;;
5491;SDS011;2768;53.540;10.224;2023-02-19T18:16:45;4.37;;;1.80;;
5491;SDS011;2768;53.540;10.224;2023-02-19T18:22:42;4.53;;;2.30;;
5491;SDS011;2768;53.540;10.224;2023-02-19T18:28:36;4.27;;;2.20;;
5491;SDS011;2768;53.540;10.224;2023-02-19T18:34:30;4.00;;;2.40;;
5491;SDS011;2768;53.540;10.224;2023-02-19T18:40:25;4.10;;;2.27;;
5491;SDS011;2768;53.540;10.224;2023-02-19T18:46:19;5.97;;;3.63;;
5491;SDS011;2768;53.540;10.224;2023-02-19T18:52:13;3.13;;;2.10;;
5491;SDS011;2768;53.540;10.224;2023-02-19T18:58:12;3.37;;;1.73;;
5491;SDS011;2768;53.540;10.224;2023-02-19T19:04:05;4.13;;;1.63;;
5491;SDS011;2768;53.540;10.224;2023-02-19T19:09:59;4.50;;;2.53;;
5491;SDS011;2768;53.540;10.224;2023-02-19T19:15:53;3.37;;;1.80;;
5491;SDS011;2768;53.540;10.224;2023-02-19T19:21:49;4.87;;;1.87;;
5491;SDS011;2768;53.540;10.224;2023-02-19T19:27:43;7.40;;;1.67;;
5491;SDS011;2768;53.540;10.224;2023-02-19T19:33:38;3.83;;;1.90;;
5491;SDS011;2768;53.540;10.224;2023-02-19T19:39:32;5.07;;;2.00;;
5491;SDS011;2768;53.540;10.224;2023-02-19T19:45:26;5.17;;;1.70;;
5491;SDS011;2768;53.540;10.224;2023-02-19T19:51:20;2.93;;;1.80;;
5491;SDS011;2768;53.540;10.224;2023-02-19T19:57:14;6.20;;;1.67;;
5491;SDS011;2768;53.540;10.224;2023-02-19T20:03:07;5.17;;;1.90;;
5491;SDS011;2768;53.540;10.224;2023-02-19T20:09:02;3.47;;;2.23;;
5491;SDS011;2768;53.540;10.224;2023-02-19T20:14:56;5.87;;;2.00;;
5491;SDS011;2768;53.540;10.224;2023-02-19T20:20:49;2.77;;;1.47;;
5491;SDS011;2768;53.540;10.224;2023-02-19T20:26:44;9.07;;;1.60;;
5491;SDS011;2768;53.540;10.224;2023-02-19T20:32:37;6.50;;;1.40;;
5491;SDS011;2768;53.540;10.224;2023-02-19T20:38:31;3.40;;;1.70;;
5491;SDS011;2768;53.540;10.224;2023-02-19T20:44:26;2.83;;;1.60;;
5491;SDS011;2768;53.540;10.224;2023-02-19T20:50:20;5.07;;;1.67;;
5491;SDS011;2768;53.540;10.224;2023-02-19T20:56:16;2.30;;;1.67;;
5491;SDS011;2768;53.540;10.224;2023-02-19T21:02:12;2.07;;;1.60;;
5491;SDS011;2768;53.540;10.224;2023-02-19T21:08:08;12.00;;;2.17;;
5491;SDS011;2768;53.540;10.224;2023-02-19T21:14:02;4.90;;;1.80;;
5491;SDS011;2768;53.540;10.224;2023-02-19T21:19:57;1.73;;;1.60;;
5491;SDS011;2768;53.540;10.224;2023-02-19T21:25:50;2.70;;;1.60;;
5491;SDS011;2768;53.540;10.224;2023-02-19T21:31:45;3.17;;;2.77;;
5491;SDS011;2768;53.540;10.224;2023-02-19T21:37:41;6.37;;;1.80;;
5491;SDS011;2768;53.540;10.224;2023-02-19T21:43:35;4.67;;;1.60;;
5491;SDS011;2768;53.540;10.224;2023-02-19T21:49:28;1.97;;;1.67;;
5491;SDS011;2768;53.540;10.224;2023-02-19T21:55:22;3.37;;;1.37;;
5491;SDS011;2768;53.540;10.224;2023-02-19T22:01:18;3.67;;;1.27;;
5491;SDS011;2768;53.540;10.224;2023-02-19T22:07:11;6.73;;;1.83;;
5491;SDS011;2768;53.540;10.224;2023-02-19T22:13:06;2.33;;;1.37;;
5491;SDS011;2768;53.540;10.224;2023-02-19T22:19:00;4.93;;;1.60;;
5491;SDS011;2768;53.540;10.224;2023-02-19T22:24:53;2.67;;;1.17;;
5491;SDS011;2768;53.540;10.224;2023-02-19T22:30:48;4.07;;;1.83;;
5491;SDS011;2768;53.540;10.224;2023-02-19T22:36:41;1.80;;;1.40;;
5491;SDS011;2768;53.540;10.224;2023-02-19T22:42:36;2.27;;;1.67;;
5491;SDS011;2768;53.540;10.224;2023-02-19T22:48:30;3.00;;;1.87;;
5491;SDS011;2768;53.540;10.224;2023-02-19T22:54:24;1.93;;;1.47;;
5491;SDS011;2768;53.540;10.224;2023-02-19T23:00:18;4.83;;;1.73;;
5491;SDS011;2768;53.540;10.224;2023-02-19T23:06:14;7.43;;;2.13;;
5491;SDS011;2768;53.540;10.224;2023-02-19T23:12:09;5.90;;;2.27;;
5491;SDS011;2768;53.540;10.224;2023-02-19T23:18:03;5.13;;;2.47;;
5491;SDS011;2768;53.540;10.224;2023-02-19T23:24:00;5.33;;;2.00;;
5491;SDS011;2768;53.540;10.224;2023-02-19T23:29:53;3.63;;;1.60;;
5491;SDS011;2768;53.540;10.224;2023-02-19T23:35:47;2.50;;;1.63;;
5491;SDS011;2768;53.540;10.224;2023-02-19T23:41:45;3.50;;;1.53;;
5491;SDS011;2768;53.540;10.224;2023-02-19T23:47:39;2.00;;;1.20;;
5491;SDS011;2768;53.540;10.224;2023-02-19T23:53:33;5.63;;;2.30;;
5491;SDS011;2768;53.540;10.224;2023-02-19T23:59:27;4.60;;;1.70;;
